| time (UTC) | temp F | wind direction | speed knots | gust knots | rain 1hr in | rain 24hr in | rain mn in | humidity % | barometer mb |
| 20260509044546 | 55 | 225 | 6.1 | 10.4 | 0.00 | 0.09 | 0.00 | 91 | 1005.1 |
| 20260509044516 | 55 | 250 | 5.2 | 10.4 | 0.00 | 0.09 | 0.00 | 91 | 1005.1 |
| 20260509043044 | 55 | 231 | 7.0 | 13.0 | 0.00 | 0.09 | 0.00 | 92 | 1005.1 |
| 20260509041542 | 55 | 207 | 8.7 | 13.0 | 0.00 | 0.09 | 0.00 | 92 | 1004.9 |
| 20260509040039 | 55 | 240 | 7.0 | 11.3 | 0.00 | 0.09 | 0.00 | 91 | 1005.2 |
| 20260509034537 | 55 | 223 | 7.0 | 12.2 | 0.00 | 0.09 | 0.09 | 91 | 1005.3 |
| 20260509033036 | 55 | 223 | 7.8 | 13.0 | 0.00 | 0.09 | 0.09 | 91 | 1005.4 |
| 20260509031536 | 55 | 245 | 6.1 | 12.2 | 0.00 | 0.09 | 0.09 | 91 | 1005.5 |
| 20260509030038 | 55 | 244 | 7.0 | 12.2 | 0.00 | 0.09 | 0.09 | 91 | 1005.5 |
| 20260509024537 | 55 | 229 | 7.0 | 13.0 | 0.01 | 0.09 | 0.09 | 91 | 1005.6 |
| 20260509023031 | 55 | 238 | 2.6 | 11.3 | 0.01 | 0.09 | 0.09 | 91 | 1005.6 |
| 20260509021531 | 55 | 248 | 7.8 | 13.0 | 0.01 | 0.09 | 0.09 | 91 | 1005.7 |
| 20260509020045 | 55 | 249 | 7.8 | 12.2 | 0.00 | 0.08 | 0.08 | 91 | 1005.5 |
| 20260509014541 | 55 | 229 | 5.2 | 8.7 | 0.00 | 0.08 | 0.08 | 91 | 1005.6 |
| 20260509013035 | 55 | 202 | 4.3 | 8.7 | 0.00 | 0.08 | 0.08 | 92 | 1005.6 |
| 20260509011526 | 54 | 222 | 5.2 | 8.7 | 0.00 | 0.08 | 0.08 | 92 | 1005.5 |
| 20260509010024 | 54 | 228 | 4.3 | 8.7 | 0.00 | 0.08 | 0.08 | 92 | 1005.5 |
| 20260509004524 | 54 | 230 | 4.3 | 7.8 | 0.01 | 0.08 | 0.08 | 92 | 1005.5 |
| 20260509003031 | 54 | 248 | 3.5 | 7.0 | 0.01 | 0.08 | 0.08 | 92 | 1005.6 |
| 20260509001522 | 54 | 245 | 5.2 | 8.7 | 0.01 | 0.08 | 0.08 | 92 | 1005.5 |
| 20260509000020 | 55 | 236 | 4.3 | 8.7 | 0.01 | 0.08 | 0.08 | 92 | 1005.7 |
| 20260508234520 | 55 | 229 | 4.3 | 12.2 | 0.00 | 0.07 | 0.07 | 92 | 1005.9 |
| 20260508233020 | 55 | 230 | 3.5 | 6.1 | 0.02 | 0.07 | 0.07 | 93 | 1005.9 |
| 20260508231519 | 55 | 221 | 0.0 | 1.7 | 0.04 | 0.07 | 0.07 | 93 | 1005.8 |
| 20260508230047 | 55 | 237 | 0.0 | 0.9 | 0.05 | 0.07 | 0.07 | 93 | 1005.7 |
| 20260508224516 | 55 | 234 | 0.0 | 3.5 | 0.07 | 0.07 | 0.07 | 92 | 1006.2 |
| 20260508223021 | 55 | 245 | 0.9 | 5.2 | 0.05 | 0.05 | 0.05 | 90 | 1006.4 |
| 20260508221514 | 56 | 266 | 1.7 | 5.2 | 0.03 | 0.03 | 0.03 | 88 | 1006.5 |
| 20260508220012 | 56 | 303 | 2.6 | 4.3 | 0.02 | 0.02 | 0.02 | 85 | 1006.2 |
| 20260508214515 | 57 | 309 | 4.3 | 7.8 | 0.00 | 0.00 | 0.00 | 81 | 1005.9 |
| 20260508213009 | 59 | 313 | 2.6 | 6.1 | 0.00 | 0.00 | 0.00 | 76 | 1005.7 |
| 20260508211508 | 60 | 307 | 3.5 | 5.2 | 0.00 | 0.00 | 0.00 | 75 | 1005.7 |
| 20260508210006 | 61 | 283 | 1.7 | 2.6 | 0.00 | 0.00 | 0.00 | 71 | 1006.0 |
| 20260508204504 | 61 | 229 | 1.7 | 8.7 | 0.00 | 0.00 | 0.00 | 70 | 1006.1 |
| 20260508203005 | 62 | 241 | 2.6 | 8.7 | 0.00 | 0.00 | 0.00 | 65 | 1006.2 |
| 20260508200055 | 63 | 257 | 3.5 | 7.8 | 0.00 | 0.00 | 0.00 | 64 | 1006.6 |
| 20260508194554 | 63 | 264 | 3.5 | 11.3 | 0.00 | 0.00 | 0.00 | 63 | 1006.6 |
| 20260508193055 | 64 | 273 | 4.3 | 9.6 | 0.00 | 0.00 | 0.00 | 61 | 1006.8 |
| 20260508191551 | 63 | 206 | 5.2 | 12.2 | 0.00 | 0.00 | 0.00 | 58 | 1006.8 |
| 20260508190050 | 64 | 265 | 6.1 | 14.8 | 0.00 | 0.00 | 0.00 | 59 | 1007.0 |
| 20260508184550 | 64 | 238 | 9.6 | 17.4 | 0.00 | 0.00 | 0.00 | 61 | 1006.8 |
| 20260508183049 | 65 | 244 | 6.1 | 14.8 | 0.00 | 0.00 | 0.00 | 60 | 1007.0 |
| 20260508183020 | 65 | 248 | 6.1 | 14.8 | 0.00 | 0.00 | 0.00 | 60 | 1007.0 |
| 20260508181556 | 65 | 242 | 10.4 | 18.2 | 0.00 | 0.00 | 0.00 | 57 | 1007.0 |
| 20260508180046 | 66 | 243 | 10.4 | 20.0 | 0.00 | 0.00 | 0.00 | 59 | 1007.0 |
| 20260508174553 | 65 | 227 | 11.3 | 17.4 | 0.00 | 0.00 | 0.00 | 61 | 1007.1 |
| 20260508173044 | 65 | 224 | 13.0 | 21.7 | 0.00 | 0.00 | 0.00 | 59 | 1007.5 |
| 20260508171539 | 65 | 245 | 12.2 | 20.9 | 0.00 | 0.00 | 0.00 | 58 | 1007.8 |
| 20260508170034 | 64 | 222 | 10.4 | 18.2 | 0.00 | 0.00 | 0.00 | 59 | 1008.0 |
| 20260508164531 | 62 | 225 | 8.7 | 13.9 | 0.00 | 0.00 | 0.00 | 61 | 1008.5 |
| 20260508163033 | 63 | 240 | 7.8 | 13.9 | 0.00 | 0.00 | 0.00 | 61 | 1008.8 |
| 20260508161529 | 64 | 244 | 7.8 | 13.0 | 0.00 | 0.00 | 0.00 | 61 | 1008.9 |
| 20260508151551 | 61 | 249 | 8.7 | 13.9 | 0.00 | 0.00 | 0.00 | 63 | 1009.4 |
| 20260508150048 | 60 | 223 | 6.1 | 11.3 | 0.00 | 0.00 | 0.00 | 65 | 1009.5 |
| 20260508144545 | 59 | 248 | 4.3 | 11.3 | 0.00 | 0.00 | 0.00 | 64 | 1009.7 |
| 20260508143039 | 58 | 278 | 3.5 | 14.8 | 0.00 | 0.00 | 0.00 | 64 | 1009.9 |
| 20260508141605 | 56 | 238 | 7.0 | 13.0 | 0.00 | 0.00 | 0.00 | 65 | 1010.1 |
| 20260508140033 | 56 | 228 | 5.2 | 16.5 | 0.00 | 0.00 | 0.00 | 66 | 1010.1 |
| 20260508134542 | 55 | 290 | 2.6 | 9.6 | 0.00 | 0.00 | 0.00 | 69 | 1010.2 |
| 20260508133027 | 54 | 212 | 4.3 | 10.4 | 0.00 | 0.00 | 0.00 | 68 | 1010.3 |
| 20260508131524 | 53 | 229 | 5.2 | 8.7 | 0.00 | 0.00 | 0.00 | 69 | 1010.3 |
| 20260508130020 | 52 | 232 | 4.3 | 7.0 | 0.00 | 0.00 | 0.00 | 69 | 1010.2 |
| 20260508124516 | 50 | 231 | 2.6 | 4.3 | 0.00 | 0.00 | 0.00 | 73 | 1010.4 |
| 20260508123023 | 50 | 228 | 1.7 | 4.3 | 0.00 | 0.00 | 0.00 | 74 | 1010.6 |
| 20260508121514 | 49 | 228 | 1.7 | 4.3 | 0.00 | 0.00 | 0.00 | 75 | 1010.5 |
| 20260508120013 | 49 | 233 | 1.7 | 3.5 | 0.00 | 0.00 | 0.00 | 76 | 1010.5 |
| 20260508114515 | 49 | 227 | 0.9 | 4.3 | 0.00 | 0.00 | 0.00 | 76 | 1010.4 |
| 20260508113010 | 48 | 233 | 1.7 | 3.5 | 0.00 | 0.00 | 0.00 | 76 | 1010.2 |
| 20260508111510 | 48 | 236 | 1.7 | 2.6 | 0.00 | 0.00 | 0.00 | 76 | 1010.1 |
| 20260508110008 | 48 | 313 | 0.0 | 3.5 | 0.00 | 0.00 | 0.00 | 77 | 1010.2 |
| 20260508104513 | 49 | 239 | 0.9 | 4.3 | 0.00 | 0.00 | 0.00 | 75 | 1009.9 |
| 20260508103007 | 48 | 242 | 0.0 | 1.7 | 0.00 | 0.00 | 0.00 | 75 | 1009.8 |
| 20260508101506 | 48 | 237 | 0.9 | 1.7 | 0.00 | 0.00 | 0.00 | 74 | 1009.8 |
| 20260508100006 | 48 | 232 | 1.7 | 3.5 | 0.00 | 0.00 | 0.00 | 75 | 1009.5 |
| 20260508094508 | 48 | 230 | 2.6 | 5.2 | 0.00 | 0.00 | 0.00 | 75 | 1009.5 |
| 20260508093005 | 48 | 227 | 3.5 | 5.2 | 0.00 | 0.00 | 0.00 | 75 | 1009.6 |
| 20260508091600 | 48 | 225 | 1.7 | 5.2 | 0.00 | 0.00 | 0.00 | 75 | 1009.8 |
| 20260508084557 | 50 | 233 | 3.5 | 8.7 | 0.00 | 0.00 | 0.00 | 72 | 1009.9 |
| 20260508083109 | 49 | 252 | 1.7 | 6.1 | 0.00 | 0.00 | 0.00 | 73 | 1010.0 |
| 20260508081602 | 50 | 248 | 1.7 | 7.8 | 0.00 | 0.00 | 0.00 | 73 | 1010.0 |
| 20260508080053 | 49 | 228 | 3.5 | 7.0 | 0.00 | 0.00 | 0.00 | 73 | 1010.0 |
| 20260508074553 | 50 | 226 | 4.3 | 7.0 | 0.00 | 0.00 | 0.00 | 71 | 1010.0 |
| 20260508073051 | 50 | 234 | 3.5 | 7.8 | 0.00 | 0.00 | 0.00 | 70 | 1010.0 |
| 20260508071550 | 50 | 231 | 5.2 | 9.6 | 0.00 | 0.00 | 0.00 | 69 | 1009.9 |
| 20260508070048 | 50 | 249 | 6.1 | 11.3 | 0.00 | 0.00 | 0.00 | 69 | 1010.1 |
| 20260508064546 | 50 | 241 | 6.1 | 11.3 | 0.00 | 0.00 | 0.00 | 70 | 1010.2 |
| 20260508063049 | 49 | 240 | 7.0 | 11.3 | 0.00 | 0.00 | 0.00 | 70 | 1010.2 |
| 20260508061543 | 49 | 244 | 5.2 | 8.7 | 0.00 | 0.00 | 0.00 | 70 | 1010.2 |
| 20260508060040 | 49 | 231 | 4.3 | 8.7 | 0.00 | 0.00 | 0.00 | 71 | 1010.4 |
| 20260508053035 | 50 | 236 | 2.6 | 7.0 | 0.00 | 0.00 | 0.00 | 72 | 1010.4 |
| 20260508051534 | 50 | 232 | 2.6 | 8.7 | 0.00 | 0.00 | 0.00 | 71 | 1010.5 |
| 20260508050032 | 50 | 219 | 5.2 | 8.7 | 0.00 | 0.00 | 0.00 | 72 | 1010.5 |